Flight Track Log - Related Links

Times and Time Zones

All times are in EDT time to prevent confusion due to time zone crossing. See the AWE1940 flight status page for this flight to view local times or setup timezone preferences in your user account.

Time Position Orientation Groundspeed Altitude Reporting Facility
EDT Latitude Longitude Course Direction KTS MPH feet Rate Location/Type
Sat 06:38:14 PM 29.9547 -95.3372 90° East 203 234 1,000  Level Houston Center
Sat 06:39:28 PM 29.9031 -95.2758 134° Southeast 237 273 3,600 1,967 Climbing Houston Center
Sat 06:40:16 PM 29.8783 -95.2422 130° Southeast 230 265 5,000 2,328 Climbing Houston Center
Sat 06:40:35 PM 29.8686 -95.1981 104° East 279 321 6,200 3,344 Climbing Houston Center
Sat 06:41:00 PM 29.9834 -94.8148 90° East  Level FlightAware Approximate
Sat 06:41:17 PM 29.8653 -95.1353 93° East 280 322 8,400  Level Houston Center
Sat 06:42:00 PM 29.9833 -94.6852 90° East  Level FlightAware Approximate
Sat 06:42:18 PM 29.8611 -95.0425 93° East 286 329 10,800  Level Houston Center
Sat 06:43:00 PM 29.9833 -94.5556 90° East  Level FlightAware Approximate
Sat 06:43:20 PM 29.8614 -94.9392 90° East 311 358 12,600  Level Houston Center
Sat 06:44:21 PM 29.8583 -94.8206 92° East 353 406 13,700 1,328 Climbing Houston Center
Sat 06:45:22 PM 29.8569 -94.6869 91° East 407 468 15,300 1,610 Climbing Houston Center
Sat 06:46:24 PM 29.8708 -94.5522 83° East 423 487 17,000 1,366 Climbing Houston Center
Sat 06:47:25 PM 29.8928 -94.4142 80° East 431 496 18,100 1,082 Climbing Houston Center
Sat 06:48:26 PM 29.9231 -94.2742 76° East 441 507 19,200 927 Climbing Houston Center
Sat 06:49:28 PM 29.9556 -94.1314 75° East 452 520 20,000 829 Climbing Houston Center
Sat 06:50:29 PM 29.9878 -93.9872 75° East 460 529 20,900 1,279 Climbing Houston Center
Sat 06:51:30 PM 30.0214 -93.8092 78° East 466 536 22,600 2,293 Climbing Houston Center
Sat 06:52:32 PM 30.0442 -93.6775 79° East 440 506 25,600 1,805 Climbing Houston Center
Sat 06:53:33 PM 30.0683 -93.5450 78° East 426 490 26,300 878 Climbing Houston Center
Sat 06:54:35 PM 30.0933 -93.4047 78° East 449 517 27,400 976 Climbing Houston Center
Sat 06:55:36 PM 30.1239 -93.2650 76° East 456 525 28,300 927 Climbing Houston Center
Sat 06:56:38 PM 30.1839 -93.1347 62° Northeast 469 540 29,300 1,122 Climbing Houston Center
Sat 06:57:39 PM 30.2664 -92.9864 57° Northeast 461 531 30,600 1,082 Climbing Houston Center
Sat 06:58:40 PM 30.3311 -92.8592 59° Northeast 463 533 31,500 1,122 Climbing Houston Center
Sat 06:59:42 PM 30.4003 -92.7339 57° Northeast 463 533 32,900 732 Climbing Houston Center
Sat 07:00:43 PM 30.4636 -92.6089 60° Northeast 453 521 33,000 49 Climbing Houston Center
Sat 07:01:45 PM 30.5264 -92.4903 58° Northeast 451 519 33,000  Level Houston Center
Sat 07:02:46 PM 30.6042 -92.3419 59° Northeast 452 520 33,000  Level Houston Center
Sat 07:03:48 PM 30.6692 -92.2175 59° Northeast 453 521 33,000  Level Houston Center
Sat 07:04:49 PM 30.7350 -92.0931 58° Northeast 452 520 33,000  Level Houston Center
Sat 07:05:51 PM 30.7989 -91.9689 59° Northeast 453 521 33,000  Level Houston Center
Sat 07:06:52 PM 30.8642 -91.8442 59° Northeast 452 520 33,000  Level Houston Center
Sat 07:07:54 PM 30.9292 -91.7206 58° Northeast 451 519 33,000  Level Houston Center
Sat 07:08:56 PM 30.9936 -91.5958 59° Northeast 451 519 33,000  Level Houston Center
Sat 07:09:57 PM 31.0717 -91.4461 59° Northeast 452 520 33,000  Level Houston Center
Sat 07:10:59 PM 31.1308 -91.3308 59° Northeast 450 518 33,000  Level Houston Center
Sat 07:12:00 PM 31.1931 -91.2056 60° Northeast 449 517 33,000  Level Houston Center
Sat 07:13:02 PM 31.2569 -91.0811 59° Northeast 447 514 33,000  Level Houston Center
Sat 07:14:03 PM 31.3203 -90.9567 59° Northeast 445 512 33,000  Level Houston Center
Sat 07:15:05 PM 31.3831 -90.8319 59° Northeast 445 512 33,000  Level Houston Center
Sat 07:16:06 PM 31.4583 -90.6814 60° Northeast 444 511 33,000  Level Houston Center
Sat 07:17:08 PM 31.5214 -90.5567 59° Northeast 445 512 33,000 -49 Level Houston Center
Sat 07:18:09 PM 31.5831 -90.4322 60° Northeast 441 507 32,900  Descending Houston Center
Sat 07:19:11 PM 31.6447 -90.3072 60° Northeast 442 509 33,000 49 Climbing Houston Center
Sat 07:20:12 PM 31.7078 -90.1825 59° Northeast 443 510 33,000  Level Houston Center
Sat 07:21:14 PM 31.7703 -90.0567 60° Northeast 444 511 33,000  Level Houston Center
Sat 07:22:15 PM 31.8333 -89.9300 60° Northeast 449 517 33,000  Level Houston Center
Sat 07:23:17 PM 31.9042 -89.7850 60° Northeast 450 518 33,000  Level Houston Center
Sat 07:23:32 PM 31.9231 -89.7456 61° Northeast 443 510 33,000  Level Memphis Center
Sat 07:24:32 PM 31.9869 -89.6178 59° Northeast 443 510 33,000  Level Memphis Center
Sat 07:25:32 PM 32.0467 -89.4922 61° Northeast 443 510 33,000  Level Memphis Center
Sat 07:26:32 PM 32.1106 -89.3617 60° Northeast 443 510 33,000  Level Memphis Center
Sat 07:27:32 PM 32.1719 -89.2333 61° Northeast 443 510 33,000  Level Memphis Center
Sat 07:28:32 PM 32.2356 -89.1072 59° Northeast 443 510 33,000  Level Memphis Center
Sat 07:29:32 PM 32.2947 -88.9786 61° Northeast 443 510 33,000  Level Memphis Center
Sat 07:30:32 PM 32.3519 -88.8647 59° Northeast 438 504 33,000  Level Memphis Center
Sat 07:31:32 PM 32.4108 -88.7381 61° Northeast 443 510 33,000  Level Memphis Center
Sat 07:32:32 PM 32.4717 -88.6089 61° Northeast 438 504 33,000  Level Memphis Center
Sat 07:33:32 PM 32.5283 -88.4847 62° Northeast 438 504 33,000  Level Memphis Center
Sat 07:34:32 PM 32.5869 -88.3603 61° Northeast 438 504 33,000  Level Memphis Center
Sat 07:36:44 PM 32.7222 -88.0731 61° Northeast 442 509 33,000  Level Atlanta Center
Sat 07:37:44 PM 32.7761 -87.9519 62° Northeast 447 514 33,000  Level Atlanta Center
Sat 07:38:44 PM 32.8344 -87.8211 62° Northeast 447 514 33,000  Level Atlanta Center
Sat 07:39:44 PM 32.8761 -87.6844 70° East 442 509 33,000  Level Atlanta Center
Sat 07:40:44 PM 32.9139 -87.5400 73° East 442 509 33,000  Level Atlanta Center
Sat 07:41:44 PM 32.9489 -87.4003 73° East 442 509 33,000  Level Atlanta Center
Sat 07:42:44 PM 32.9864 -87.2533 73° East 442 509 33,000  Level Atlanta Center
Sat 07:43:44 PM 33.0172 -87.1033 76° East 442 509 33,000  Level Atlanta Center
Sat 07:44:44 PM 33.0542 -86.9558 73° East 442 509 33,000  Level Atlanta Center
Sat 07:45:44 PM 33.0889 -86.8133 74° East 448 516 33,000  Level Atlanta Center
Sat 07:46:44 PM 33.1233 -86.6681 74° East 448 516 33,000  Level Atlanta Center
Sat 07:47:44 PM 33.1578 -86.5203 74° East 457 526 33,000  Level Atlanta Center
Sat 07:48:44 PM 33.1917 -86.3797 74° East 442 509 33,000  Level Atlanta Center
Sat 07:49:44 PM 33.2258 -86.2314 75° East 447 514 33,000  Level Atlanta Center
Sat 07:50:44 PM 33.2597 -86.0833 75° East 447 514 33,000  Level Atlanta Center
Sat 07:51:44 PM 33.2933 -85.9400 74° East 453 521 33,000  Level Atlanta Center
Sat 07:52:44 PM 33.3267 -85.7964 74° East 448 516 33,000  Level Atlanta Center
Sat 07:53:44 PM 33.3578 -85.6703 74° East 438 504 33,000  Level Atlanta Center
Sat 07:54:44 PM 33.3908 -85.5267 75° East 446 513 33,000  Level Atlanta Center
Sat 07:55:44 PM 33.4217 -85.3778 76° East 452 520 33,000  Level Atlanta Center
Sat 07:56:44 PM 33.4567 -85.2189 75° East 447 514 33,000  Level Atlanta Center
Sat 07:57:44 PM 33.4894 -85.0700 75° East 453 521 33,000  Level Atlanta Center
Sat 07:58:44 PM 33.5219 -84.9258 75° East 453 521 33,000  Level Atlanta Center
Sat 07:59:44 PM 33.5542 -84.7767 75° East 453 521 33,000  Level Atlanta Center
Sat 08:00:44 PM 33.5842 -84.6297 76° East 453 521 33,000  Level Atlanta Center
Sat 08:01:44 PM 33.6139 -84.4828 76° East 453 521 33,000  Level Atlanta Center
Sat 08:02:44 PM 33.6519 -84.3408 72° East 448 516 33,000  Level Atlanta Center
Sat 08:03:44 PM 33.6961 -84.1911 70° East 456 525 33,000  Level Atlanta Center
Sat 08:04:44 PM 33.7378 -84.0439 71° East 464 534 33,000  Level Atlanta Center
Sat 08:05:44 PM 33.7775 -83.8964 72° East 459 528 33,000  Level Atlanta Center
Sat 08:06:44 PM 33.8189 -83.7511 71° East 459 528 33,000  Level Atlanta Center
Sat 08:07:44 PM 33.8603 -83.6011 72° East 464 534 33,000  Level Atlanta Center
Sat 08:08:44 PM 33.8994 -83.4556 72° East 459 528 33,000 -200 Level Atlanta Center
Sat 08:09:44 PM 33.9403 -83.3078 72° East 459 528 32,600 -700 Descending Atlanta Center
Sat 08:10:44 PM 33.9811 -83.1619 71° East 459 528 31,600 -1,000 Descending Atlanta Center
Sat 08:11:44 PM 34.0175 -83.0164 73° East 459 528 30,600 -950 Descending Atlanta Center
Sat 08:12:44 PM 34.0600 -82.8678 71° East 459 528 29,700 -850 Descending Atlanta Center
Sat 08:13:44 PM 34.0961 -82.7344 72° East 464 534 28,900 -950 Descending Atlanta Center
Sat 08:14:44 PM 34.1422 -82.5706 71° East 464 534 27,800 -1,050 Descending Atlanta Center
Sat 08:15:44 PM 34.2033 -82.4314 62° Northeast 464 534 26,800 -1,000 Descending Atlanta Center
Sat 08:16:44 PM 34.2786 -82.3042 54° Northeast 458 527 25,800 -1,000 Descending Atlanta Center
Sat 08:17:44 PM 34.3542 -82.1819 53° Northeast 458 527 24,800 -1,450 Descending Atlanta Center
Sat 08:18:44 PM 34.4253 -82.0594 55° Northeast 451 519 22,900 -2,200 Descending Atlanta Center
Sat 08:19:44 PM 34.4983 -81.9417 53° Northeast 445 512 20,400 -2,357 Descending Atlanta Center
Sat 08:20:36 PM 34.5553 -81.8469 54° Northeast 421 484 18,500 -2,250 Descending Atlanta Center
Sat 08:21:44 PM 34.6281 -81.7214 55° Northeast 410 472 15,900 -2,203 Descending Atlanta Center
Sat 08:22:44 PM 34.6847 -81.6264 54° Northeast 394 453 13,800 -1,900 Descending Atlanta Center
Sat 08:23:44 PM 34.7472 -81.5261 53° Northeast 384 442 12,100 -900 Descending Atlanta Center
Sat 08:24:44 PM 34.8164 -81.4381 46° Northeast 365 420 12,000 -240 Descending Atlanta Center
Sat 08:24:59 PM 34.8408 -81.4067 46° Northeast 371 427 11,800 -600 Descending Atlanta Center
Sat 08:25:44 PM 34.8875 -81.3444 48° Northeast 365 420 11,400 -700 Descending Atlanta Center
Sat 08:25:59 PM 34.9158 -81.3056 48° Northeast 376 433 11,100 -900 Descending Atlanta Center
Sat 08:26:44 PM 34.9586 -81.2536 45° Northeast 365 420 10,500 -968 Descending Atlanta Center
Sat 08:27:01 PM 34.9869 -81.2169 47° Northeast 365 420 10,100 -400 Descending Atlanta Center
Sat 08:27:44 PM 35.0275 -81.1650 46° Northeast 357 411 10,100  Level Atlanta Center
Sat 08:28:01 PM 35.0536 -81.1311 47° Northeast 354 407 10,100 -100 Level Atlanta Center
Sat 08:28:44 PM 35.0983 -81.0761 45° Northeast 357 411 10,000 -179 Descending Atlanta Center
Sat 08:29:08 PM 35.1397 -81.0619 16° North 338 389 9,900 -800 Descending Atlanta Center
Sat 08:29:44 PM 35.1897 -81.0653 357° North 306 352 9,200 -1,418 Descending Atlanta Center
Sat 08:30:03 PM 35.2172 -81.0719 349° North 281 323 8,600 -1,884 Descending Atlanta Center
Sat 08:31:10 PM 35.3050 -81.0789 356° North 270 311 6,500 -1,594 Descending Atlanta Center
Sat 08:32:11 PM 35.3714 -81.0714 North 245 282 5,200 -1,180 Descending Atlanta Center
Sat 08:33:12 PM 35.3761 -81.0050 85° East 190 219 4,100 -1,034 Descending Atlanta Center
Sat 08:34:07 PM 35.3339 -80.9811 155° Southeast 166 191 3,200 -982 Descending Atlanta Center

Login

Don't have an account? Register now (free) for customized features, flight alerts, and more!